Time;durP1;ratioP1;P1;durP2;ratioP2;P2;SDS_P1;SDS_P2;PMS_P1;PMS_P2;Temp;Humidity;BMP_temperature;BMP_pressure;BME280_temperature;BME280_humidity;BME280_pressure;Samples;Min_cycle;Max_cycle;Signal;HPM_P1;HPM_P2
2023/05/26 00:00:02;;;;;;;11.53;10.43;;;12.00;99.90;;;;;;4958845;28;20601;-78
2023/05/26 00:02:32;;;;;;;12.73;11.63;;;12.00;99.90;;;;;;4961223;28;20685;-78
2023/05/26 00:04:59;;;;;;;13.20;11.90;;;12.00;99.90;;;;;;4975172;28;20285;-78
2023/05/26 00:07:26;;;;;;;12.30;11.30;;;12.00;99.90;;;;;;4959340;29;20225;-78
2023/05/26 00:09:52;;;;;;;12.57;11.30;;;12.00;99.90;;;;;;4960309;29;20555;-78
2023/05/26 00:12:20;;;;;;;9.63;8.03;;;12.10;99.90;;;;;;4959970;29;20685;-79
2023/05/26 00:14:48;;;;;;;12.27;11.07;;;12.10;99.90;;;;;;4959084;29;20288;-78
2023/05/26 00:17:16;;;;;;;12.83;11.63;;;12.10;99.90;;;;;;4959890;29;20204;-79
2023/05/26 00:19:43;;;;;;;13.17;11.90;;;12.10;99.90;;;;;;4959234;29;20276;-79
2023/05/26 00:22:10;;;;;;;11.70;10.70;;;12.10;99.90;;;;;;4960099;29;20724;-78
2023/05/26 00:24:37;;;;;;;12.57;11.57;;;12.00;99.90;;;;;;4959585;29;20692;-78
2023/05/26 00:27:04;;;;;;;11.83;10.63;;;12.00;99.90;;;;;;4960031;29;20261;-77
2023/05/26 00:29:31;;;;;;;12.50;11.27;;;12.00;99.90;;;;;;4960327;29;20221;-79
2023/05/26 00:32:02;;;;;;;13.57;12.37;;;12.00;99.90;;;;;;4974445;28;20206;-78
2023/05/26 00:34:28;;;;;;;13.33;12.20;;;12.00;99.90;;;;;;4959422;29;20222;-78
2023/05/26 00:36:56;;;;;;;12.60;11.50;;;11.90;99.90;;;;;;4959880;28;20191;-78
2023/05/26 00:39:22;;;;;;;12.77;11.67;;;11.90;99.90;;;;;;4958146;28;20664;-79
2023/05/26 00:41:50;;;;;;;13.00;11.70;;;11.90;99.90;;;;;;4958784;29;20208;-78
2023/05/26 00:44:16;;;;;;;12.43;11.23;;;11.90;99.90;;;;;;4958184;29;20313;-79
2023/05/26 00:46:43;;;;;;;12.73;11.43;;;12.00;99.90;;;;;;4958390;29;20198;-79
2023/05/26 00:49:11;;;;;;;12.63;11.33;;;12.00;99.90;;;;;;4958377;29;20206;-79
2023/05/26 00:51:38;;;;;;;13.27;11.97;;;11.90;99.90;;;;;;4959868;29;20195;-79
2023/05/26 00:54:06;;;;;;;11.97;10.97;;;11.90;99.90;;;;;;4958155;29;20230;-79
2023/05/26 00:56:35;;;;;;;12.47;11.27;;;11.90;99.90;;;;;;4958838;29;20252;-79
2023/05/26 00:59:03;;;;;;;11.90;10.80;;;11.90;99.90;;;;;;4974557;28;20314;-78
2023/05/26 01:01:30;;;;;;;12.73;11.53;;;11.90;99.90;;;;;;4959588;28;20743;-79
2023/05/26 01:03:57;;;;;;;11.60;10.57;;;11.80;99.90;;;;;;4958155;29;20226;-78
2023/05/26 01:06:25;;;;;;;12.23;11.10;;;11.70;99.90;;;;;;4958515;29;20680;-78
2023/05/26 01:08:52;;;;;;;13.23;12.03;;;11.70;99.90;;;;;;4958488;29;20691;-79
2023/05/26 01:11:26;;;;;;;12.40;11.20;;;11.70;99.90;;;;;;4958735;29;20221;-78
2023/05/26 01:13:58;;;;;;;12.20;11.00;;;11.70;99.90;;;;;;4957708;29;20697;-77
2023/05/26 01:16:33;;;;;;;12.27;11.07;;;11.70;99.90;;;;;;4957796;29;20206;-79
2023/05/26 01:19:12;;;;;;;12.40;11.20;;;11.70;99.90;;;;;;4959402;29;20282;-79
2023/05/26 01:21:43;;;;;;;14.40;11.63;;;11.70;99.90;;;;;;4957889;28;20680;-79
2023/05/26 01:24:17;;;;;;;13.30;11.80;;;11.70;99.90;;;;;;4958060;28;20230;-78
2023/05/26 01:26:53;;;;;;;12.10;11.00;;;11.80;99.90;;;;;;4959719;29;20202;-78
2023/05/26 01:29:23;;;;;;;11.73;10.63;;;11.80;99.90;;;;;;4959362;29;20225;-79
2023/05/26 01:31:50;;;;;;;11.17;10.07;;;11.80;99.90;;;;;;4958226;29;20209;-79
2023/05/26 01:34:17;;;;;;;11.10;10.00;;;11.90;99.90;;;;;;4957385;29;20292;-78
2023/05/26 01:36:43;;;;;;;11.53;10.37;;;11.80;99.90;;;;;;4954265;29;20213;-78
2023/05/26 01:39:11;;;;;;;11.30;10.10;;;11.80;99.90;;;;;;4955197;29;20297;-78
2023/05/26 01:41:45;;;;;;;11.50;10.50;;;11.90;99.90;;;;;;4973522;28;20249;-78
2023/05/26 01:44:22;;;;;;;11.50;10.10;;;11.80;99.90;;;;;;4957655;28;20226;-79
2023/05/26 01:46:52;;;;;;;12.23;10.43;;;11.80;99.90;;;;;;4957889;29;20234;-78
2023/05/26 01:49:21;;;;;;;11.50;10.40;;;11.80;99.90;;;;;;4958876;29;20744;-78
2023/05/26 01:51:51;;;;;;;13.30;9.80;;;11.80;99.90;;;;;;4957701;28;20204;-79
2023/05/26 01:54:23;;;;;;;11.10;10.00;;;11.70;99.90;;;;;;4958398;28;20230;-78
2023/05/26 01:56:52;;;;;;;10.97;9.33;;;11.70;99.90;;;;;;4957393;28;20212;-79
2023/05/26 01:59:20;;;;;;;11.87;10.23;;;11.70;99.90;;;;;;4957421;29;20222;-78
2023/05/26 02:01:47;;;;;;;10.93;9.83;;;11.70;99.90;;;;;;4973596;28;20206;-79
2023/05/26 02:04:15;;;;;;;9.70;8.70;;;11.60;99.90;;;;;;4956793;28;20476;-79
2023/05/26 02:06:42;;;;;;;11.73;10.50;;;11.60;99.90;;;;;;4957409;28;20201;-79
2023/05/26 02:09:09;;;;;;;10.97;9.97;;;11.60;99.90;;;;;;4957373;29;20213;-79
2023/05/26 02:11:36;;;;;;;12.43;11.20;;;11.50;99.90;;;;;;4959066;29;20198;-79
2023/05/26 02:14:03;;;;;;;12.73;11.00;;;11.50;99.90;;;;;;4973010;28;20256;-78
2023/05/26 02:16:30;;;;;;;12.23;11.03;;;11.50;99.90;;;;;;4973230;28;20755;-79
2023/05/26 02:18:57;;;;;;;12.90;11.57;;;11.50;99.90;;;;;;4965100;28;20563;-79
2023/05/26 02:21:26;;;;;;;11.50;10.33;;;11.50;99.90;;;;;;4972484;28;20224;-79
2023/05/26 02:23:53;;;;;;;11.83;10.60;;;11.50;99.90;;;;;;4955480;29;20700;-79
2023/05/26 02:26:21;;;;;;;12.50;11.33;;;11.40;99.90;;;;;;4955180;28;20214;-78
2023/05/26 02:28:49;;;;;;;13.17;11.83;;;11.40;99.90;;;;;;4971953;28;20210;-79
2023/05/26 02:31:16;;;;;;;12.33;11.13;;;11.30;99.90;;;;;;4957105;29;20212;-79
2023/05/26 02:33:43;;;;;;;13.07;11.87;;;11.30;99.90;;;;;;4957257;29;20281;-79
2023/05/26 02:36:11;;;;;;;13.10;11.90;;;11.30;99.90;;;;;;4955414;29;20599;-78
2023/05/26 02:38:39;;;;;;;12.80;11.70;;;11.20;99.90;;;;;;4972308;28;20211;-78
2023/05/26 02:41:07;;;;;;;13.40;12.10;;;11.20;99.90;;;;;;4955836;29;20608;-79
2023/05/26 02:43:34;;;;;;;13.53;12.07;;;11.20;99.90;;;;;;4953765;29;20220;-79
2023/05/26 02:46:02;;;;;;;13.03;11.60;;;11.20;99.90;;;;;;4953683;29;20225;-79
2023/05/26 02:48:30;;;;;;;13.00;11.70;;;11.20;99.90;;;;;;4953585;29;20204;-79
2023/05/26 02:50:59;;;;;;;12.67;11.47;;;11.10;99.90;;;;;;4954857;29;20208;-79
2023/05/26 02:53:27;;;;;;;12.23;10.93;;;11.20;99.90;;;;;;4961880;28;20227;-79
2023/05/26 02:55:56;;;;;;;12.43;11.10;;;11.10;99.90;;;;;;4956299;28;20231;-78
2023/05/26 02:58:23;;;;;;;13.03;11.67;;;11.10;99.90;;;;;;4951936;29;20231;-79
2023/05/26 03:00:52;;;;;;;13.37;12.07;;;11.10;99.90;;;;;;4963014;28;20217;-78
2023/05/26 03:03:19;;;;;;;12.47;11.27;;;11.10;99.90;;;;;;4966387;28;20643;-78
2023/05/26 03:05:46;;;;;;;12.00;10.40;;;11.10;99.90;;;;;;4949305;28;20288;-78
2023/05/26 03:08:13;;;;;;;10.60;9.27;;;11.10;99.90;;;;;;4951592;28;20634;-78
2023/05/26 03:10:40;;;;;;;9.93;8.07;;;11.10;99.90;;;;;;4948841;28;20197;-78
2023/05/26 03:13:09;;;;;;;11.73;8.93;;;11.10;99.90;;;;;;4953950;28;20204;-78
2023/05/26 03:15:54;;;;;;;13.13;9.07;;;11.20;99.90;;;;;;4957681;28;20302;-81
2023/05/26 03:18:47;;;;;;;11.40;8.63;;;11.10;99.90;;;;;;4967263;28;20260;-81
2023/05/26 03:27:22;;;;;;;11.40;8.67;;;11.10;99.90;;;;;;4951726;29;20593;-80
2023/05/26 03:29:53;;;;;;;10.87;9.17;;;11.10;99.90;;;;;;4953653;29;20232;-79
2023/05/26 03:32:22;;;;;;;11.73;9.77;;;11.10;99.90;;;;;;4969009;28;20255;-79
2023/05/26 03:34:49;;;;;;;11.37;10.17;;;11.10;99.90;;;;;;4953996;29;20210;-77
2023/05/26 03:37:16;;;;;;;11.70;9.63;;;11.10;99.90;;;;;;4970930;28;20233;-78
2023/05/26 03:39:44;;;;;;;11.07;9.60;;;11.10;99.90;;;;;;4955817;29;20799;-78
2023/05/26 03:42:12;;;;;;;14.47;9.83;;;11.10;99.90;;;;;;4955312;29;20413;-77
2023/05/26 03:44:42;;;;;;;11.27;9.93;;;11.10;99.90;;;;;;4955024;28;20256;-77
2023/05/26 03:47:10;;;;;;;12.60;10.17;;;11.10;99.90;;;;;;4955098;29;20206;-78
2023/05/26 03:49:38;;;;;;;13.87;10.10;;;11.20;99.90;;;;;;4971474;28;20289;-78
2023/05/26 03:52:05;;;;;;;12.33;9.90;;;11.20;99.90;;;;;;4955571;29;20267;-77
2023/05/26 03:54:32;;;;;;;11.97;9.33;;;11.20;99.90;;;;;;4955140;29;20305;-77
2023/05/26 03:57:00;;;;;;;13.20;10.23;;;11.20;99.90;;;;;;4970368;28;20220;-77
2023/05/26 03:59:27;;;;;;;11.70;8.80;;;11.30;99.90;;;;;;4970846;28;20252;-77
2023/05/26 04:01:55;;;;;;;12.23;9.30;;;11.30;99.90;;;;;;4955275;29;20313;-78
2023/05/26 04:04:23;;;;;;;12.57;10.80;;;11.40;99.90;;;;;;4954339;28;20237;-77
2023/05/26 04:06:50;;;;;;;10.50;9.33;;;11.40;99.90;;;;;;4954404;29;20291;-78
2023/05/26 04:09:17;;;;;;;12.37;10.70;;;11.40;99.90;;;;;;4954504;29;20195;-77
2023/05/26 04:11:44;;;;;;;13.17;11.87;;;11.50;99.90;;;;;;4955114;29;20264;-78
2023/05/26 04:14:10;;;;;;;12.93;11.67;;;11.50;99.90;;;;;;4971123;28;20239;-78
2023/05/26 04:16:37;;;;;;;12.03;11.03;;;11.50;99.90;;;;;;4957213;29;20198;-77
2023/05/26 04:19:04;;;;;;;12.10;10.90;;;11.60;99.90;;;;;;4958025;29;20200;-78
2023/05/26 04:21:32;;;;;;;13.60;12.30;;;11.60;99.90;;;;;;4958918;29;20221;-78
2023/05/26 04:23:59;;;;;;;13.63;12.27;;;11.70;99.90;;;;;;4973964;28;20229;-77
2023/05/26 04:26:28;;;;;;;12.87;11.67;;;11.70;99.90;;;;;;4957215;29;20206;-78
2023/05/26 04:29:09;;;;;;;12.73;11.53;;;11.80;99.90;;;;;;4957934;29;20206;-78
2023/05/26 04:31:46;;;;;;;12.63;11.43;;;11.90;99.90;;;;;;4966430;28;20253;-78
2023/05/26 04:34:21;;;;;;;13.00;11.17;;;12.00;99.90;;;;;;4957428;29;20218;-77
2023/05/26 04:37:04;;;;;;;12.47;11.23;;;12.10;99.90;;;;;;4957339;28;20228;-77
2023/05/26 04:39:31;;;;;;;11.13;9.63;;;12.20;99.90;;;;;;4973855;28;20301;-77
2023/05/26 04:41:58;;;;;;;13.53;12.13;;;12.30;99.90;;;;;;4974202;28;20209;-78
2023/05/26 04:44:25;;;;;;;13.10;11.80;;;12.50;99.90;;;;;;4957629;29;20805;-78
2023/05/26 04:46:53;;;;;;;10.83;9.60;;;12.70;99.90;;;;;;4958118;28;20703;-78
2023/05/26 04:49:22;;;;;;;11.47;10.37;;;12.80;99.90;;;;;;4957489;28;20242;-77
2023/05/26 04:51:50;;;;;;;10.67;9.13;;;13.00;99.90;;;;;;4957149;29;20195;-78
2023/05/26 04:54:18;;;;;;;12.10;10.90;;;13.10;99.90;;;;;;4957980;29;20229;-78
2023/05/26 04:56:45;;;;;;;10.97;8.60;;;13.40;99.90;;;;;;4957619;29;20297;-78
2023/05/26 04:59:12;;;;;;;9.30;8.27;;;13.50;99.90;;;;;;4958190;28;20242;-78
2023/05/26 05:01:39;;;;;;;10.97;8.50;;;13.60;99.90;;;;;;4958990;28;20223;-78
2023/05/26 05:04:18;;;;;;;10.23;7.87;;;13.60;99.90;;;;;;4961551;29;20232;-77
2023/05/26 05:06:50;;;;;;;8.70;7.80;;;13.70;99.90;;;;;;4956994;28;20201;-78
2023/05/26 05:09:18;;;;;;;8.23;7.17;;;13.80;99.90;;;;;;4957799;28;20208;-78
2023/05/26 05:11:46;;;;;;;9.97;7.87;;;13.90;99.90;;;;;;4957504;28;20467;-78
2023/05/26 05:14:13;;;;;;;9.17;7.37;;;14.00;99.90;;;;;;4957699;28;20263;-78
2023/05/26 05:16:41;;;;;;;9.73;7.40;;;14.10;99.90;;;;;;4956912;28;20205;-78
2023/05/26 05:19:08;;;;;;;9.43;7.63;;;14.40;99.90;;;;;;4957167;28;20215;-78
2023/05/26 05:21:44;;;;;;;8.83;7.90;;;14.50;99.90;;;;;;5173376;23;20232;-79
2023/05/26 05:24:11;;;;;;;9.83;7.40;;;14.80;99.90;;;;;;4969467;28;20226;-78
2023/05/26 05:26:40;;;;;;;9.57;7.53;;;15.00;99.90;;;;;;4975379;28;20229;-78
2023/05/26 05:29:09;;;;;;;10.30;7.37;;;15.00;99.90;;;;;;4972501;28;20198;-79
2023/05/26 05:31:40;;;;;;;13.17;8.57;;;15.10;99.90;;;;;;4969899;28;20747;-79
2023/05/26 05:34:07;;;;;;;9.47;7.27;;;15.10;99.90;;;;;;4969122;28;20229;-79
2023/05/26 05:36:34;;;;;;;8.40;6.80;;;15.20;99.90;;;;;;4971284;28;20202;-79
2023/05/26 05:39:01;;;;;;;7.67;6.87;;;15.30;99.90;;;;;;4974258;28;20486;-79
2023/05/26 05:41:29;;;;;;;7.90;7.00;;;15.50;99.90;;;;;;4975864;28;20277;-79
2023/05/26 05:43:57;;;;;;;8.87;6.83;;;15.80;99.90;;;;;;4971871;28;20295;-79
2023/05/26 05:46:26;;;;;;;8.17;6.97;;;16.20;99.90;;;;;;4968754;28;20213;-80
2023/05/26 05:48:58;;;;;;;10.47;7.47;;;16.80;99.90;;;;;;4970763;28;20252;-77
2023/05/26 05:51:31;;;;;;;9.57;7.83;;;17.40;99.90;;;;;;4976612;28;20263;-78
2023/05/26 05:53:58;;;;;;;8.47;6.80;;;17.80;99.90;;;;;;4968246;28;20239;-78
2023/05/26 05:56:27;;;;;;;10.43;7.37;;;18.20;99.90;;;;;;4971545;28;20692;-77
2023/05/26 05:58:54;;;;;;;8.90;7.07;;;18.60;99.90;;;;;;4970762;28;20198;-79
2023/05/26 06:01:23;;;;;;;11.77;7.47;;;18.90;99.90;;;;;;4969934;28;20218;-77
2023/05/26 06:03:50;;;;;;;9.73;7.37;;;19.10;99.90;;;;;;4973473;28;20219;-79
2023/05/26 06:06:18;;;;;;;8.57;6.73;;;19.20;99.90;;;;;;4969091;28;20674;-77
2023/05/26 06:08:45;;;;;;;10.53;8.33;;;19.50;99.90;;;;;;4967428;28;20585;-77
2023/05/26 06:11:11;;;;;;;11.63;9.70;;;19.50;99.90;;;;;;4978617;28;20200;-77
2023/05/26 06:13:43;;;;;;;10.33;7.80;;;19.30;99.90;;;;;;4966384;28;20296;-77
2023/05/26 06:16:11;;;;;;;10.43;7.97;;;18.90;99.90;;;;;;4967946;28;20217;-77
2023/05/26 06:18:39;;;;;;;9.80;8.23;;;19.00;99.90;;;;;;4974942;28;20270;-78
2023/05/26 06:21:06;;;;;;;13.37;11.90;;;19.00;99.90;;;;;;4971358;28;20232;-78
2023/05/26 06:23:34;;;;;;;12.63;11.43;;;19.00;99.90;;;;;;4971046;28;20844;-77
2023/05/26 06:26:01;;;;;;;11.97;10.90;;;19.30;99.90;;;;;;4975528;28;20603;-77
2023/05/26 06:28:29;;;;;;;13.20;10.80;;;19.70;99.90;;;;;;4967975;28;20205;-77
2023/05/26 06:30:56;;;;;;;11.00;9.90;;;19.80;99.90;;;;;;4972449;28;20193;-79
2023/05/26 06:33:41;;;;;;;10.87;9.73;;;20.20;99.90;;;;;;4975526;28;20240;-77
2023/05/26 06:36:09;;;;;;;11.70;9.97;;;20.40;99.90;;;;;;4969149;28;20207;-77
2023/05/26 06:38:36;;;;;;;11.47;10.33;;;20.60;99.90;;;;;;4969247;28;20210;-77
2023/05/26 06:41:07;;;;;;;12.50;10.67;;;20.40;99.90;;;;;;4975308;28;20215;-77
2023/05/26 06:43:34;;;;;;;13.00;11.60;;;20.50;99.90;;;;;;4974470;28;20228;-77
2023/05/26 06:46:01;;;;;;;13.33;12.03;;;20.80;99.90;;;;;;4968597;28;20400;-77
2023/05/26 06:48:30;;;;;;;11.00;9.80;;;20.90;99.90;;;;;;4973511;28;20198;-81
2023/05/26 06:51:25;;;;;;;;;;;;;;;;;;;;;
2023/05/26 06:56:55;;;;;;;12.90;11.73;;;20.20;99.90;;;;;;4962091;28;20210;-80
2023/05/26 06:59:24;;;;;;;12.47;11.17;;;20.50;99.90;;;;;;4968919;28;20288;-81
2023/05/26 07:01:52;;;;;;;13.17;11.97;;;20.70;99.90;;;;;;4972158;28;20228;-81
2023/05/26 07:04:22;;;;;;;12.00;10.80;;;20.90;99.90;;;;;;4971784;28;20248;-82
2023/05/26 07:07:06;;;;;;;12.77;9.30;;;21.20;99.90;;;;;;4972721;28;20202;-82
2023/05/26 07:09:35;;;;;;;10.33;7.27;;;21.20;99.90;;;;;;4970791;28;20205;-81
2023/05/26 07:12:06;;;;;;;10.47;7.87;;;21.40;99.90;;;;;;4971706;28;20260;-83
2023/05/26 07:14:42;;;;;;;10.83;8.10;;;21.60;99.90;;;;;;4966834;28;20221;-81
2023/05/26 07:17:10;;;;;;;10.10;7.33;;;21.20;99.90;;;;;;4973953;28;20304;-82
2023/05/26 07:19:39;;;;;;;13.30;12.20;;;21.30;99.90;;;;;;4972268;28;20202;-81
2023/05/26 07:25:18;;;;;;;10.13;8.67;;;21.90;99.90;;;;;;4964964;28;20210;-82
2023/05/26 07:27:55;;;;;;;12.83;7.97;;;22.20;99.90;;;;;;4962719;28;20199;-82
2023/05/26 07:30:27;;;;;;;11.80;9.70;;;21.90;99.90;;;;;;4964594;28;20205;-81
2023/05/26 07:33:07;;;;;;;11.40;7.83;;;22.00;99.90;;;;;;4964342;28;20680;-82
2023/05/26 07:35:35;;;;;;;9.13;7.20;;;22.10;99.90;;;;;;4968991;28;20199;-81
2023/05/26 07:38:10;;;;;;;15.97;8.10;;;22.30;99.90;;;;;;4962323;28;20982;-83
2023/05/26 07:40:39;;;;;;;10.17;7.80;;;22.60;99.90;;;;;;4968647;28;20214;-82
2023/05/26 07:43:15;;;;;;;10.50;7.70;;;22.50;99.90;;;;;;4972911;28;20292;-82
2023/05/26 07:45:48;;;;;;;11.23;7.70;;;22.70;99.90;;;;;;4972678;28;20198;-81
2023/05/26 07:48:17;;;;;;;10.07;7.77;;;23.00;99.90;;;;;;4960857;28;20203;-81
2023/05/26 07:50:50;;;;;;;12.17;9.70;;;23.20;99.90;;;;;;4972578;28;20194;-82
2023/05/26 07:53:21;;;;;;;12.47;10.17;;;22.90;99.90;;;;;;4963285;28;20234;-82
2023/05/26 07:55:49;;;;;;;11.37;10.17;;;23.00;99.90;;;;;;4972369;28;20205;-82
2023/05/26 07:58:16;;;;;;;13.37;10.77;;;22.90;99.90;;;;;;4965403;28;20256;-83
2023/05/26 08:00:43;;;;;;;11.50;10.30;;;22.60;99.90;;;;;;4971001;28;20210;-81
2023/05/26 08:03:10;;;;;;;11.80;9.80;;;22.60;99.90;;;;;;4973238;28;20313;-81
2023/05/26 08:05:40;;;;;;;11.00;7.47;;;22.90;99.90;;;;;;4978626;28;20203;-82
2023/05/26 08:08:08;;;;;;;9.00;6.87;;;23.20;99.90;;;;;;4972459;28;20213;-81
2023/05/26 08:10:41;;;;;;;13.27;11.27;;;23.40;99.90;;;;;;4973472;28;20662;-82
2023/05/26 08:13:09;;;;;;;11.20;9.57;;;23.10;99.90;;;;;;4972252;28;20259;-81
2023/05/26 08:15:36;;;;;;;11.73;10.00;;;23.00;99.90;;;;;;4979503;28;20235;-82
2023/05/26 08:18:03;;;;;;;13.83;11.50;;;23.40;99.90;;;;;;4977199;28;20210;-82
2023/05/26 08:20:30;;;;;;;14.47;11.73;;;23.30;99.90;;;;;;4969295;28;20202;-82
2023/05/26 08:22:58;;;;;;;13.33;9.27;;;23.10;99.90;;;;;;4962382;28;20222;-81
2023/05/26 08:25:25;;;;;;;8.87;7.67;;;23.60;99.90;;;;;;4974629;28;20209;-81
2023/05/26 08:27:54;;;;;;;9.83;8.83;;;24.00;99.90;;;;;;4977629;28;20204;-82
2023/05/26 08:30:21;;;;;;;14.37;11.73;;;24.00;99.90;;;;;;4975332;28;20619;-81
2023/05/26 08:32:48;;;;;;;10.73;8.93;;;23.90;99.90;;;;;;4974960;28;20190;-85
2023/05/26 08:35:15;;;;;;;9.43;8.17;;;24.10;99.90;;;;;;4983209;28;20216;-82
2023/05/26 08:37:42;;;;;;;10.27;7.80;;;24.10;99.90;;;;;;4960920;28;20210;-84
2023/05/26 08:40:11;;;;;;;10.03;8.57;;;23.90;99.90;;;;;;4963539;28;20206;-82
2023/05/26 08:42:47;;;;;;;10.47;9.50;;;24.00;99.90;;;;;;4981430;28;20315;-82
2023/05/26 08:45:16;;;;;;;12.17;10.97;;;24.40;99.90;;;;;;4966669;28;20230;-81
2023/05/26 08:47:43;;;;;;;12.13;10.93;;;24.70;99.90;;;;;;4992094;28;20203;-82
2023/05/26 08:50:13;;;;;;;10.17;7.93;;;24.40;99.90;;;;;;4975380;28;20205;-82
2023/05/26 08:52:42;;;;;;;10.97;9.97;;;24.40;99.90;;;;;;4981604;28;20206;-81
2023/05/26 08:55:12;;;;;;;12.27;11.00;;;24.60;99.90;;;;;;4971251;28;20768;-82
2023/05/26 08:57:41;;;;;;;10.53;9.43;;;24.60;99.90;;;;;;4963100;28;20199;-82
2023/05/26 09:00:11;;;;;;;10.53;9.53;;;24.80;99.90;;;;;;4970764;28;20209;-82
2023/05/26 09:02:41;;;;;;;10.47;9.37;;;25.10;99.90;;;;;;4990071;28;20728;-81
2023/05/26 09:05:09;;;;;;;14.93;11.83;;;24.90;99.90;;;;;;4973883;28;20233;-82
2023/05/26 09:07:36;;;;;;;12.80;7.37;;;24.60;99.90;;;;;;4967776;28;20203;-82
2023/05/26 09:10:19;;;;;;;10.50;7.83;;;24.90;99.90;;;;;;4971127;28;20301;-82
2023/05/26 09:12:46;;;;;;;11.73;8.17;;;25.00;99.90;;;;;;4967760;28;20233;-81
2023/05/26 09:15:13;;;;;;;19.53;8.70;;;24.30;99.90;;;;;;4970934;28;20233;-82
2023/05/26 09:17:42;;;;;;;11.80;8.97;;;23.90;99.90;;;;;;4975921;28;20202;-81
2023/05/26 09:20:12;;;;;;;9.40;7.27;;;24.30;99.90;;;;;;4974039;28;20676;-82
2023/05/26 09:22:39;;;;;;;9.80;7.13;;;24.40;99.90;;;;;;4968964;28;20297;-86
2023/05/26 09:25:07;;;;;;;10.30;7.07;;;25.00;99.90;;;;;;4966931;28;20698;-81
2023/05/26 09:28:11;;;;;;;10.20;7.47;;;25.40;99.90;;;;;;4970115;28;20607;-82
2023/05/26 09:31:22;;;;;;;;;;;;;;;;;;;;;
2023/05/26 09:34:23;;;;;;;10.63;9.53;;;25.90;99.90;;;;;;4945679;28;20594;-81
2023/05/26 09:37:28;;;;;;;;;;;;;;;;;;;;;
2023/05/26 09:40:13;;;;;;;11.90;8.80;;;25.90;99.90;;;;;;4971975;28;20681;-83
2023/05/26 09:42:47;;;;;;;12.70;9.33;;;25.30;99.90;;;;;;4972875;28;20237;-79
2023/05/26 09:45:14;;;;;;;9.90;7.23;;;25.60;99.90;;;;;;4969653;28;20256;-79
2023/05/26 09:51:06;;;;;;;9.93;8.60;;;25.40;99.90;;;;;;4967112;28;20213;-78
2023/05/26 09:53:36;;;;;;;10.80;9.80;;;25.60;99.90;;;;;;4968342;28;20312;-78
2023/05/26 10:00:05;;;;;;;;;;;;;;;;;;;;;
2023/05/26 10:02:58;;;;;;;9.13;6.83;;;25.90;99.90;;;;;;4970987;28;20305;-78
2023/05/26 10:06:40;;;;;;;11.37;8.93;;;25.60;99.90;;;;;;4977869;28;20680;-78
2023/05/26 10:24:24;;;;;;;10.33;6.90;;;25.30;99.90;;;;;;4934183;29;20235;-78
2023/05/26 10:41:56;;;;;;;12.33;10.10;;;24.60;99.90;;;;;;4957244;28;20201;-78
2023/05/26 10:45:15;;;;;;;12.03;8.60;;;24.70;99.90;;;;;;4955356;28;20217;-78
2023/05/26 10:48:20;;;;;;;8.57;6.63;;;24.10;99.90;;;;;;4957403;28;20684;-78
2023/05/26 10:51:48;;;;;;;11.73;8.20;;;24.40;99.90;;;;;;4970478;28;20224;-78
2023/05/26 11:01:34;;;;;;;11.77;7.07;;;24.00;99.90;;;;;;4959894;28;20286;-78
2023/05/26 11:11:38;;;;;;;10.40;7.47;;;24.00;99.90;;;;;;4887793;29;20722;-78
2023/05/26 11:27:56;;;;;;;11.73;7.47;;;23.30;99.90;;;;;;4978136;28;20256;-78
2023/05/26 11:30:49;;;;;;;8.93;8.03;;;23.50;99.90;;;;;;4985572;28;20715;-79
2023/05/26 11:33:21;;;;;;;12.17;7.23;;;23.60;99.90;;;;;;4975567;28;20632;-77
2023/05/26 11:35:54;;;;;;;9.37;7.17;;;23.70;99.90;;;;;;4988179;28;20264;-78
2023/05/26 11:38:58;;;;;;;;;;;;;;;;;;;;;
2023/05/26 11:41:36;;;;;;;11.33;10.33;;;23.70;99.90;;;;;;4978908;28;20197;-78
2023/05/26 11:54:27;;;;;;;9.40;7.10;;;23.30;99.90;;;;;;4978045;28;20294;-78
2023/05/26 11:57:37;;;;;;;9.47;6.20;;;23.40;99.90;;;;;;4973115;28;20210;-78
2023/05/26 12:01:14;;;;;;;8.93;6.27;;;23.30;99.90;;;;;;4973582;28;20292;-78
2023/05/26 12:08:01;;;;;;;10.13;6.23;;;23.30;99.90;;;;;;4954629;28;20198;-78
2023/05/26 12:11:08;;;;;;;9.17;5.97;;;23.30;99.90;;;;;;4972677;28;20265;-79
2023/05/26 12:14:23;;;;;;;8.50;5.83;;;23.40;99.90;;;;;;4972806;28;20217;-78
2023/05/26 12:17:46;;;;;;;10.70;6.27;;;23.50;99.90;;;;;;4977193;28;20202;-77
2023/05/26 12:23:54;;;;;;;13.80;11.43;;;23.10;99.90;;;;;;4977781;28;20589;-79
2023/05/26 12:27:09;;;;;;;;;;;;;;;;;;;;;
2023/05/26 12:30:56;;;;;;;10.37;6.93;;;23.10;99.90;;;;;;4978815;28;20202;-78
2023/05/26 12:34:59;;;;;;;;;;;;;;;;;;;;;
2023/05/26 12:38:31;;;;;;;;;;;;;;;;;;;;;
2023/05/26 12:42:21;;;;;;;;;;;;;;;;;;;;;
2023/05/26 12:45:16;;;;;;;10.10;6.30;;;23.10;99.90;;;;;;4979388;28;20218;-79
2023/05/26 12:47:51;;;;;;;10.67;6.37;;;23.20;99.90;;;;;;4975287;28;20194;-79
2023/05/26 12:50:46;;;;;;;7.83;6.07;;;23.40;99.90;;;;;;4975212;28;20198;-78
2023/05/26 12:53:45;;;;;;;;;;;;;;;;;;;;;
2023/05/26 12:57:04;;;;;;;;;;;;;;;;;;;;;
2023/05/26 13:00:06;;;;;;;11.03;7.10;;;23.50;99.90;;;;;;4976033;28;20194;-78
2023/05/26 13:06:55;;;;;;;12.87;6.17;;;23.40;99.90;;;;;;4935007;29;20208;-81
2023/05/26 13:09:48;;;;;;;;;;;;;;;;;;;;;
2023/05/26 13:13:17;;;;;;;;;;;;;;;;;;;;;
2023/05/26 13:16:04;;;;;;;8.23;6.10;;;23.80;99.90;;;;;;4932754;28;20293;-79
2023/05/26 13:18:31;;;;;;;8.60;5.90;;;23.80;99.90;;;;;;4974444;28;20261;-81
2023/05/26 13:20:58;;;;;;;7.83;5.90;;;23.70;99.90;;;;;;4992216;28;20751;-79
2023/05/26 13:23:25;;;;;;;9.77;6.30;;;23.70;99.90;;;;;;4972059;28;20231;-80
2023/05/26 13:25:53;;;;;;;8.30;5.50;;;23.80;99.90;;;;;;4974858;28;20194;-79
2023/05/26 13:28:23;;;;;;;7.97;6.30;;;23.70;99.90;;;;;;4970919;28;20198;-81
2023/05/26 13:30:50;;;;;;;8.93;6.87;;;23.80;99.90;;;;;;4966569;28;20194;-80
2023/05/26 13:33:17;;;;;;;7.80;6.13;;;23.80;99.90;;;;;;4974968;28;20206;-80
2023/05/26 13:35:44;;;;;;;11.63;6.97;;;23.90;99.90;;;;;;4978373;28;20261;-81
2023/05/26 13:38:11;;;;;;;17.37;8.57;;;24.10;99.90;;;;;;4976886;28;20190;-81
2023/05/26 13:40:38;;;;;;;9.63;7.73;;;24.00;99.90;;;;;;4969214;28;20253;-79
2023/05/26 13:43:06;;;;;;;8.17;7.37;;;24.00;99.90;;;;;;4970262;28;20210;-81
2023/05/26 13:45:33;;;;;;;8.53;7.50;;;24.00;99.90;;;;;;4970777;28;20190;-81
2023/05/26 13:48:00;;;;;;;10.60;9.57;;;23.70;99.90;;;;;;4972930;28;20226;-81
2023/05/26 13:50:28;;;;;;;10.43;8.03;;;23.60;99.90;;;;;;4976427;28;20212;-81
2023/05/26 13:52:55;;;;;;;10.77;8.60;;;23.50;99.90;;;;;;4970683;28;20213;-83
2023/05/26 13:55:21;;;;;;;10.10;9.10;;;23.30;99.90;;;;;;4972850;28;20241;-81
2023/05/26 13:57:49;;;;;;;12.10;9.30;;;23.20;99.90;;;;;;4973053;28;20205;-81
2023/05/26 14:00:17;;;;;;;10.73;9.70;;;23.20;99.90;;;;;;4966880;28;20222;-81
2023/05/26 14:02:45;;;;;;;9.00;6.00;;;23.30;99.90;;;;;;4972941;28;20301;-81
2023/05/26 14:05:14;;;;;;;8.30;6.30;;;23.40;99.90;;;;;;4971190;28;20301;-81
2023/05/26 14:07:41;;;;;;;9.43;7.10;;;23.40;99.90;;;;;;4968381;28;20665;-81
2023/05/26 14:10:09;;;;;;;8.90;6.10;;;23.40;99.90;;;;;;4972021;28;20205;-80
2023/05/26 14:12:36;;;;;;;8.03;5.90;;;23.60;99.90;;;;;;4974656;28;20203;-81
2023/05/26 14:15:04;;;;;;;12.67;6.00;;;23.80;99.90;;;;;;4969609;28;20238;-82
2023/05/26 14:17:33;;;;;;;9.10;6.53;;;23.70;99.90;;;;;;4971902;28;20249;-81
2023/05/26 14:20:00;;;;;;;9.17;5.80;;;23.70;99.90;;;;;;4972597;28;20623;-82
2023/05/26 14:22:26;;;;;;;9.03;5.50;;;23.50;99.90;;;;;;4970765;28;20209;-82
2023/05/26 14:24:53;;;;;;;9.27;6.23;;;23.50;99.90;;;;;;4968355;28;20230;-82
2023/05/26 14:27:20;;;;;;;7.73;5.70;;;23.50;99.90;;;;;;4971838;28;20216;-82
2023/05/26 14:29:47;;;;;;;9.50;6.53;;;23.50;99.90;;;;;;4971070;28;20229;-82
2023/05/26 14:32:14;;;;;;;7.40;5.57;;;23.40;99.90;;;;;;4968594;28;20260;-82
2023/05/26 14:34:44;;;;;;;7.17;5.23;;;23.20;99.90;;;;;;4966232;28;20836;-82
2023/05/26 14:37:11;;;;;;;7.60;5.80;;;23.00;99.90;;;;;;4972779;28;20684;-81
2023/05/26 14:39:44;;;;;;;8.77;6.17;;;22.90;99.90;;;;;;4971413;28;20652;-82
2023/05/26 14:42:15;;;;;;;10.50;9.50;;;22.80;99.90;;;;;;4985217;28;20732;-80
2023/05/26 14:44:50;;;;;;;10.37;6.30;;;22.80;99.90;;;;;;4985259;28;20253;-79
2023/05/26 14:47:17;;;;;;;9.57;5.93;;;22.70;99.90;;;;;;4965101;28;20216;-79
2023/05/26 14:49:45;;;;;;;8.67;6.20;;;22.80;99.90;;;;;;4973001;28;20265;-78
2023/05/26 14:52:11;;;;;;;11.10;6.20;;;22.80;99.90;;;;;;4972828;28;20205;-79
2023/05/26 14:54:38;;;;;;;8.90;5.40;;;22.80;99.90;;;;;;4974430;28;20240;-79
2023/05/26 14:57:06;;;;;;;8.33;5.47;;;22.90;99.90;;;;;;4968921;28;20202;-78
2023/05/26 14:59:32;;;;;;;9.80;8.83;;;22.90;99.90;;;;;;4962908;28;20671;-79
2023/05/26 15:01:59;;;;;;;8.80;8.10;;;22.90;99.90;;;;;;4969018;28;20260;-78